sensor_id;sensor_type;location;lat;lon;timestamp;P1;durP1;ratioP1;P2;durP2;ratioP2
55455;SDS011;63021;52.836;6.376;2023-02-21T00:00:21;25.60;;;13.05;;
55455;SDS011;63021;52.836;6.376;2023-02-21T00:03:05;30.95;;;13.93;;
55455;SDS011;63021;52.836;6.376;2023-02-21T00:08:33;29.23;;;13.17;;
55455;SDS011;63021;52.836;6.376;2023-02-21T00:11:17;34.30;;;14.75;;
55455;SDS011;63021;52.836;6.376;2023-02-21T00:14:01;28.77;;;13.05;;
55455;SDS011;63021;52.836;6.376;2023-02-21T00:19:29;29.40;;;13.43;;
55455;SDS011;63021;52.836;6.376;2023-02-21T00:22:13;28.40;;;12.43;;
55455;SDS011;63021;52.836;6.376;2023-02-21T00:24:57;29.60;;;12.75;;
55455;SDS011;63021;52.836;6.376;2023-02-21T00:30:25;33.93;;;13.43;;
55455;SDS011;63021;52.836;6.376;2023-02-21T00:33:09;33.70;;;13.23;;
55455;SDS011;63021;52.836;6.376;2023-02-21T00:35:53;28.73;;;13.98;;
55455;SDS011;63021;52.836;6.376;2023-02-21T00:38:37;31.23;;;13.18;;
55455;SDS011;63021;52.836;6.376;2023-02-21T00:41:21;36.95;;;14.65;;
55455;SDS011;63021;52.836;6.376;2023-02-21T00:44:05;32.55;;;14.73;;
55455;SDS011;63021;52.836;6.376;2023-02-21T00:46:49;34.42;;;13.82;;
55455;SDS011;63021;52.836;6.376;2023-02-21T00:49:33;41.17;;;13.38;;
55455;SDS011;63021;52.836;6.376;2023-02-21T00:52:17;29.52;;;12.93;;
55455;SDS011;63021;52.836;6.376;2023-02-21T00:55:01;25.70;;;13.40;;
55455;SDS011;63021;52.836;6.376;2023-02-21T00:57:45;34.63;;;14.38;;
55455;SDS011;63021;52.836;6.376;2023-02-21T01:00:29;41.90;;;14.57;;
55455;SDS011;63021;52.836;6.376;2023-02-21T01:03:13;32.95;;;14.82;;
55455;SDS011;63021;52.836;6.376;2023-02-21T01:05:57;46.00;;;15.35;;
55455;SDS011;63021;52.836;6.376;2023-02-21T01:08:42;30.52;;;13.95;;
55455;SDS011;63021;52.836;6.376;2023-02-21T01:11:27;32.10;;;13.57;;
55455;SDS011;63021;52.836;6.376;2023-02-21T01:14:12;29.48;;;13.35;;
55455;SDS011;63021;52.836;6.376;2023-02-21T01:16:56;33.47;;;14.43;;
55455;SDS011;63021;52.836;6.376;2023-02-21T01:19:41;28.80;;;14.57;;
55455;SDS011;63021;52.836;6.376;2023-02-21T01:22:25;29.58;;;13.98;;
55455;SDS011;63021;52.836;6.376;2023-02-21T01:25:09;28.92;;;13.98;;
55455;SDS011;63021;52.836;6.376;2023-02-21T01:27:53;31.77;;;15.02;;
55455;SDS011;63021;52.836;6.376;2023-02-21T01:30:38;35.28;;;14.35;;
55455;SDS011;63021;52.836;6.376;2023-02-21T01:33:22;39.42;;;15.32;;
55455;SDS011;63021;52.836;6.376;2023-02-21T01:36:06;35.22;;;13.35;;
55455;SDS011;63021;52.836;6.376;2023-02-21T01:38:50;35.60;;;15.75;;
55455;SDS011;63021;52.836;6.376;2023-02-21T01:41:34;27.70;;;14.48;;
55455;SDS011;63021;52.836;6.376;2023-02-21T01:47:22;51.42;;;18.08;;
55455;SDS011;63021;52.836;6.376;2023-02-21T01:50:28;39.33;;;14.57;;
55455;SDS011;63021;52.836;6.376;2023-02-21T01:53:20;37.13;;;15.13;;
55455;SDS011;63021;52.836;6.376;2023-02-21T01:56:06;39.97;;;16.33;;
55455;SDS011;63021;52.836;6.376;2023-02-21T01:58:52;39.88;;;15.57;;
55455;SDS011;63021;52.836;6.376;2023-02-21T02:01:45;37.17;;;16.67;;
55455;SDS011;63021;52.836;6.376;2023-02-21T02:04:34;43.53;;;19.23;;
55455;SDS011;63021;52.836;6.376;2023-02-21T02:07:18;42.13;;;18.75;;
55455;SDS011;63021;52.836;6.376;2023-02-21T02:10:04;36.75;;;18.42;;
55455;SDS011;63021;52.836;6.376;2023-02-21T02:12:54;39.00;;;18.08;;
55455;SDS011;63021;52.836;6.376;2023-02-21T02:15:25;39.10;;;18.95;;
55455;SDS011;63021;52.836;6.376;2023-02-21T02:23:39;34.30;;;17.25;;
55455;SDS011;63021;52.836;6.376;2023-02-21T02:32:17;34.92;;;18.42;;
55455;SDS011;63021;52.836;6.376;2023-02-21T02:37:39;35.50;;;18.42;;
55455;SDS011;63021;52.836;6.376;2023-02-21T02:45:52;45.67;;;19.45;;
55455;SDS011;63021;52.836;6.376;2023-02-21T02:48:30;37.10;;;18.40;;
55455;SDS011;63021;52.836;6.376;2023-02-21T02:51:01;33.45;;;18.90;;
55455;SDS011;63021;52.836;6.376;2023-02-21T02:53:30;40.20;;;19.60;;
55455;SDS011;63021;52.836;6.376;2023-02-21T02:56:05;42.00;;;18.80;;
55455;SDS011;63021;52.836;6.376;2023-02-21T02:58:39;32.25;;;18.23;;
55455;SDS011;63021;52.836;6.376;2023-02-21T03:12:07;41.35;;;18.23;;
55455;SDS011;63021;52.836;6.376;2023-02-21T03:14:43;46.85;;;21.23;;
55455;SDS011;63021;52.836;6.376;2023-02-21T03:17:14;38.95;;;19.38;;
55455;SDS011;63021;52.836;6.376;2023-02-21T03:19:44;40.55;;;20.98;;
55455;SDS011;63021;52.836;6.376;2023-02-21T03:22:13;37.20;;;20.38;;
55455;SDS011;63021;52.836;6.376;2023-02-21T03:24:43;39.35;;;20.38;;
55455;SDS011;63021;52.836;6.376;2023-02-21T03:27:11;36.67;;;19.95;;
55455;SDS011;63021;52.836;6.376;2023-02-21T03:29:37;40.17;;;20.50;;
55455;SDS011;63021;52.836;6.376;2023-02-21T03:32:12;40.83;;;19.10;;
55455;SDS011;63021;52.836;6.376;2023-02-21T03:34:42;42.55;;;19.98;;
55455;SDS011;63021;52.836;6.376;2023-02-21T03:37:10;39.85;;;20.70;;
55455;SDS011;63021;52.836;6.376;2023-02-21T03:39:44;41.85;;;20.70;;
55455;SDS011;63021;52.836;6.376;2023-02-21T03:42:09;41.42;;;19.55;;
55455;SDS011;63021;52.836;6.376;2023-02-21T03:44:34;51.47;;;20.50;;
55455;SDS011;63021;52.836;6.376;2023-02-21T03:47:00;40.33;;;19.42;;
55455;SDS011;63021;52.836;6.376;2023-02-21T03:49:26;36.70;;;20.50;;
55455;SDS011;63021;52.836;6.376;2023-02-21T03:51:51;38.58;;;18.77;;
55455;SDS011;63021;52.836;6.376;2023-02-21T03:54:17;31.05;;;18.65;;
55455;SDS011;63021;52.836;6.376;2023-02-21T03:56:42;37.25;;;20.33;;
55455;SDS011;63021;52.836;6.376;2023-02-21T03:59:08;34.55;;;17.65;;
55455;SDS011;63021;52.836;6.376;2023-02-21T04:01:33;37.38;;;18.75;;
55455;SDS011;63021;52.836;6.376;2023-02-21T04:03:58;40.58;;;19.55;;
55455;SDS011;63021;52.836;6.376;2023-02-21T04:06:24;39.78;;;18.75;;
55455;SDS011;63021;52.836;6.376;2023-02-21T04:08:49;38.00;;;18.85;;
55455;SDS011;63021;52.836;6.376;2023-02-21T04:11:15;51.75;;;21.60;;
55455;SDS011;63021;52.836;6.376;2023-02-21T04:13:42;35.75;;;18.90;;
55455;SDS011;63021;52.836;6.376;2023-02-21T04:16:08;38.55;;;19.17;;
55455;SDS011;63021;52.836;6.376;2023-02-21T04:18:33;36.90;;;18.45;;
55455;SDS011;63021;52.836;6.376;2023-02-21T04:20:58;39.70;;;20.52;;
55455;SDS011;63021;52.836;6.376;2023-02-21T04:23:24;33.60;;;19.13;;
55455;SDS011;63021;52.836;6.376;2023-02-21T04:25:49;41.28;;;20.13;;
55455;SDS011;63021;52.836;6.376;2023-02-21T04:28:15;34.22;;;19.08;;
55455;SDS011;63021;52.836;6.376;2023-02-21T04:30:40;30.52;;;19.17;;
55455;SDS011;63021;52.836;6.376;2023-02-21T04:33:12;42.60;;;21.20;;
55455;SDS011;63021;52.836;6.376;2023-02-21T04:35:51;36.20;;;19.83;;
55455;SDS011;63021;52.836;6.376;2023-02-21T04:38:16;35.50;;;19.73;;
55455;SDS011;63021;52.836;6.376;2023-02-21T04:40:42;44.35;;;21.42;;
55455;SDS011;63021;52.836;6.376;2023-02-21T04:43:08;38.65;;;20.80;;
55455;SDS011;63021;52.836;6.376;2023-02-21T04:45:33;42.00;;;21.70;;
55455;SDS011;63021;52.836;6.376;2023-02-21T04:47:58;40.60;;;22.05;;
55455;SDS011;63021;52.836;6.376;2023-02-21T04:50:24;39.40;;;20.83;;
55455;SDS011;63021;52.836;6.376;2023-02-21T04:52:49;37.22;;;20.63;;
55455;SDS011;63021;52.836;6.376;2023-02-21T04:55:15;46.67;;;20.98;;
55455;SDS011;63021;52.836;6.376;2023-02-21T04:57:40;50.33;;;21.40;;
55455;SDS011;63021;52.836;6.376;2023-02-21T05:00:06;37.47;;;19.20;;
55455;SDS011;63021;52.836;6.376;2023-02-21T05:02:32;40.15;;;20.48;;
55455;SDS011;63021;52.836;6.376;2023-02-21T05:04:58;37.10;;;20.10;;
55455;SDS011;63021;52.836;6.376;2023-02-21T05:07:23;41.58;;;20.33;;
55455;SDS011;63021;52.836;6.376;2023-02-21T05:09:48;47.08;;;20.85;;
55455;SDS011;63021;52.836;6.376;2023-02-21T05:12:14;39.03;;;22.58;;
55455;SDS011;63021;52.836;6.376;2023-02-21T05:14:40;41.53;;;20.67;;
55455;SDS011;63021;52.836;6.376;2023-02-21T05:17:06;48.92;;;21.85;;
55455;SDS011;63021;52.836;6.376;2023-02-21T05:19:32;33.60;;;19.58;;
55455;SDS011;63021;52.836;6.376;2023-02-21T05:21:59;36.92;;;21.30;;
55455;SDS011;63021;52.836;6.376;2023-02-21T05:24:27;43.08;;;21.27;;
55455;SDS011;63021;52.836;6.376;2023-02-21T05:26:54;38.33;;;21.38;;
55455;SDS011;63021;52.836;6.376;2023-02-21T05:29:20;40.28;;;20.73;;
55455;SDS011;63021;52.836;6.376;2023-02-21T05:31:46;39.72;;;21.35;;
55455;SDS011;63021;52.836;6.376;2023-02-21T05:34:11;38.25;;;20.63;;
55455;SDS011;63021;52.836;6.376;2023-02-21T05:36:38;39.50;;;21.42;;
55455;SDS011;63021;52.836;6.376;2023-02-21T05:39:04;34.13;;;21.55;;
55455;SDS011;63021;52.836;6.376;2023-02-21T05:41:30;36.85;;;20.65;;
55455;SDS011;63021;52.836;6.376;2023-02-21T05:43:56;39.28;;;20.70;;
55455;SDS011;63021;52.836;6.376;2023-02-21T05:46:26;40.35;;;20.90;;
55455;SDS011;63021;52.836;6.376;2023-02-21T05:48:53;43.13;;;20.35;;
55455;SDS011;63021;52.836;6.376;2023-02-21T05:51:23;43.83;;;21.70;;
55455;SDS011;63021;52.836;6.376;2023-02-21T05:53:49;40.22;;;20.38;;
55455;SDS011;63021;52.836;6.376;2023-02-21T05:56:15;43.88;;;20.15;;
55455;SDS011;63021;52.836;6.376;2023-02-21T05:58:44;40.13;;;22.45;;
55455;SDS011;63021;52.836;6.376;2023-02-21T06:01:10;38.95;;;21.52;;
55455;SDS011;63021;52.836;6.376;2023-02-21T06:03:35;45.25;;;21.65;;
55455;SDS011;63021;52.836;6.376;2023-02-21T06:06:01;47.67;;;21.55;;
55455;SDS011;63021;52.836;6.376;2023-02-21T06:08:27;47.08;;;22.67;;
55455;SDS011;63021;52.836;6.376;2023-02-21T06:10:53;40.35;;;22.48;;
55455;SDS011;63021;52.836;6.376;2023-02-21T06:13:18;42.83;;;21.20;;
55455;SDS011;63021;52.836;6.376;2023-02-21T06:15:43;35.85;;;20.42;;
55455;SDS011;63021;52.836;6.376;2023-02-21T06:18:11;38.42;;;20.95;;
55455;SDS011;63021;52.836;6.376;2023-02-21T06:20:38;39.80;;;21.58;;
55455;SDS011;63021;52.836;6.376;2023-02-21T06:23:03;39.50;;;20.77;;
55455;SDS011;63021;52.836;6.376;2023-02-21T06:25:28;44.03;;;22.45;;
55455;SDS011;63021;52.836;6.376;2023-02-21T06:27:54;35.63;;;22.25;;
55455;SDS011;63021;52.836;6.376;2023-02-21T06:30:19;40.17;;;22.73;;
55455;SDS011;63021;52.836;6.376;2023-02-21T06:32:44;43.40;;;21.52;;
55455;SDS011;63021;52.836;6.376;2023-02-21T06:35:10;39.45;;;23.02;;
55455;SDS011;63021;52.836;6.376;2023-02-21T06:37:36;35.13;;;21.63;;
55455;SDS011;63021;52.836;6.376;2023-02-21T06:40:02;40.92;;;21.13;;
55455;SDS011;63021;52.836;6.376;2023-02-21T06:42:29;43.33;;;21.45;;
55455;SDS011;63021;52.836;6.376;2023-02-21T06:44:54;37.63;;;22.75;;
55455;SDS011;63021;52.836;6.376;2023-02-21T06:47:20;38.05;;;20.75;;
55455;SDS011;63021;52.836;6.376;2023-02-21T06:49:45;46.58;;;23.98;;
55455;SDS011;63021;52.836;6.376;2023-02-21T06:52:11;36.83;;;21.38;;
55455;SDS011;63021;52.836;6.376;2023-02-21T06:54:37;44.30;;;21.60;;
55455;SDS011;63021;52.836;6.376;2023-02-21T06:57:02;47.80;;;23.02;;
55455;SDS011;63021;52.836;6.376;2023-02-21T06:59:29;38.50;;;21.77;;
55455;SDS011;63021;52.836;6.376;2023-02-21T07:01:55;42.42;;;21.23;;
55455;SDS011;63021;52.836;6.376;2023-02-21T07:04:21;40.10;;;21.52;;
55455;SDS011;63021;52.836;6.376;2023-02-21T07:06:47;37.63;;;22.33;;
55455;SDS011;63021;52.836;6.376;2023-02-21T07:09:12;43.25;;;22.60;;
55455;SDS011;63021;52.836;6.376;2023-02-21T07:11:38;38.83;;;21.38;;
55455;SDS011;63021;52.836;6.376;2023-02-21T07:14:05;38.80;;;21.77;;
55455;SDS011;63021;52.836;6.376;2023-02-21T07:16:31;35.92;;;20.80;;
55455;SDS011;63021;52.836;6.376;2023-02-21T07:19:06;42.35;;;21.98;;
55455;SDS011;63021;52.836;6.376;2023-02-21T07:21:31;41.33;;;22.85;;
55455;SDS011;63021;52.836;6.376;2023-02-21T07:23:56;37.58;;;21.45;;
55455;SDS011;63021;52.836;6.376;2023-02-21T07:26:25;40.25;;;22.27;;
55455;SDS011;63021;52.836;6.376;2023-02-21T07:28:50;44.20;;;22.60;;
55455;SDS011;63021;52.836;6.376;2023-02-21T07:31:16;40.03;;;21.15;;
55455;SDS011;63021;52.836;6.376;2023-02-21T07:33:41;39.42;;;22.05;;
55455;SDS011;63021;52.836;6.376;2023-02-21T07:36:07;41.25;;;23.13;;
55455;SDS011;63021;52.836;6.376;2023-02-21T07:38:35;43.20;;;23.52;;
55455;SDS011;63021;52.836;6.376;2023-02-21T07:41:01;38.08;;;23.67;;
55455;SDS011;63021;52.836;6.376;2023-02-21T07:43:28;41.75;;;24.10;;
55455;SDS011;63021;52.836;6.376;2023-02-21T07:45:55;44.28;;;22.80;;
55455;SDS011;63021;52.836;6.376;2023-02-21T07:48:21;42.25;;;22.38;;
55455;SDS011;63021;52.836;6.376;2023-02-21T07:50:47;44.53;;;22.77;;
55455;SDS011;63021;52.836;6.376;2023-02-21T07:53:12;39.10;;;21.85;;
55455;SDS011;63021;52.836;6.376;2023-02-21T07:55:39;43.28;;;23.17;;
55455;SDS011;63021;52.836;6.376;2023-02-21T07:58:05;40.08;;;23.85;;
55455;SDS011;63021;52.836;6.376;2023-02-21T08:00:34;45.60;;;22.67;;
55455;SDS011;63021;52.836;6.376;2023-02-21T08:03:00;38.17;;;22.65;;
55455;SDS011;63021;52.836;6.376;2023-02-21T08:05:29;44.25;;;23.33;;
55455;SDS011;63021;52.836;6.376;2023-02-21T08:07:54;45.83;;;24.08;;
55455;SDS011;63021;52.836;6.376;2023-02-21T08:10:24;38.30;;;24.15;;
55455;SDS011;63021;52.836;6.376;2023-02-21T08:12:51;44.53;;;22.75;;
55455;SDS011;63021;52.836;6.376;2023-02-21T08:15:24;37.22;;;22.00;;
55455;SDS011;63021;52.836;6.376;2023-02-21T08:17:53;42.03;;;24.05;;
55455;SDS011;63021;52.836;6.376;2023-02-21T08:20:19;41.35;;;23.77;;
55455;SDS011;63021;52.836;6.376;2023-02-21T08:22:44;38.97;;;23.48;;
55455;SDS011;63021;52.836;6.376;2023-02-21T08:25:10;46.38;;;25.17;;
55455;SDS011;63021;52.836;6.376;2023-02-21T08:27:40;46.40;;;24.92;;
55455;SDS011;63021;52.836;6.376;2023-02-21T08:30:07;46.40;;;23.30;;
55455;SDS011;63021;52.836;6.376;2023-02-21T08:32:35;40.92;;;23.52;;
55455;SDS011;63021;52.836;6.376;2023-02-21T08:35:00;45.28;;;24.98;;
55455;SDS011;63021;52.836;6.376;2023-02-21T08:37:27;42.10;;;23.02;;
55455;SDS011;63021;52.836;6.376;2023-02-21T08:39:57;46.95;;;25.08;;
55455;SDS011;63021;52.836;6.376;2023-02-21T08:42:23;44.58;;;24.42;;
55455;SDS011;63021;52.836;6.376;2023-02-21T08:44:49;41.28;;;23.48;;
55455;SDS011;63021;52.836;6.376;2023-02-21T08:47:15;47.58;;;24.02;;
55455;SDS011;63021;52.836;6.376;2023-02-21T08:49:45;41.80;;;26.27;;
55455;SDS011;63021;52.836;6.376;2023-02-21T08:52:11;43.35;;;25.13;;
55455;SDS011;63021;52.836;6.376;2023-02-21T08:54:40;41.80;;;24.58;;
55455;SDS011;63021;52.836;6.376;2023-02-21T08:57:06;43.08;;;24.05;;
55455;SDS011;63021;52.836;6.376;2023-02-21T08:59:31;44.13;;;26.45;;
55455;SDS011;63021;52.836;6.376;2023-02-21T09:02:00;42.42;;;25.55;;
55455;SDS011;63021;52.836;6.376;2023-02-21T09:04:25;43.88;;;24.77;;
55455;SDS011;63021;52.836;6.376;2023-02-21T09:06:55;45.45;;;25.42;;
55455;SDS011;63021;52.836;6.376;2023-02-21T09:09:20;43.53;;;25.20;;
55455;SDS011;63021;52.836;6.376;2023-02-21T09:11:49;47.10;;;24.90;;
55455;SDS011;63021;52.836;6.376;2023-02-21T09:14:15;40.47;;;25.15;;
55455;SDS011;63021;52.836;6.376;2023-02-21T09:16:41;48.35;;;27.77;;
55455;SDS011;63021;52.836;6.376;2023-02-21T09:19:07;40.80;;;24.85;;
55455;SDS011;63021;52.836;6.376;2023-02-21T09:21:33;44.17;;;25.95;;
55455;SDS011;63021;52.836;6.376;2023-02-21T09:23:59;46.53;;;27.50;;
55455;SDS011;63021;52.836;6.376;2023-02-21T09:26:26;45.38;;;25.98;;
55455;SDS011;63021;52.836;6.376;2023-02-21T09:28:56;44.42;;;25.83;;
55455;SDS011;63021;52.836;6.376;2023-02-21T09:31:25;41.75;;;24.55;;
55455;SDS011;63021;52.836;6.376;2023-02-21T09:33:51;46.70;;;26.92;;
55455;SDS011;63021;52.836;6.376;2023-02-21T09:36:16;51.13;;;27.65;;
55455;SDS011;63021;52.836;6.376;2023-02-21T09:38:47;46.63;;;28.90;;
55455;SDS011;63021;52.836;6.376;2023-02-21T09:41:14;50.92;;;27.35;;
55455;SDS011;63021;52.836;6.376;2023-02-21T09:43:42;46.17;;;26.83;;
55455;SDS011;63021;52.836;6.376;2023-02-21T09:46:31;47.88;;;27.15;;
55455;SDS011;63021;52.836;6.376;2023-02-21T09:49:01;49.88;;;27.73;;
55455;SDS011;63021;52.836;6.376;2023-02-21T09:51:29;48.72;;;27.70;;
55455;SDS011;63021;52.836;6.376;2023-02-21T09:53:57;45.47;;;27.77;;
55455;SDS011;63021;52.836;6.376;2023-02-21T09:56:33;44.20;;;26.45;;
55455;SDS011;63021;52.836;6.376;2023-02-21T09:59:02;44.10;;;26.08;;
55455;SDS011;63021;52.836;6.376;2023-02-21T10:18:24;47.17;;;26.00;;
55455;SDS011;63021;52.836;6.376;2023-02-21T10:20:58;46.53;;;27.63;;
55455;SDS011;63021;52.836;6.376;2023-02-21T10:23:44;44.72;;;25.55;;
55455;SDS011;63021;52.836;6.376;2023-02-21T10:26:22;44.58;;;26.35;;
55455;SDS011;63021;52.836;6.376;2023-02-21T10:28:53;42.50;;;24.77;;
55455;SDS011;63021;52.836;6.376;2023-02-21T10:31:30;48.63;;;27.02;;
55455;SDS011;63021;52.836;6.376;2023-02-21T10:33:59;46.72;;;27.08;;
55455;SDS011;63021;52.836;6.376;2023-02-21T10:36:26;47.35;;;26.40;;
55455;SDS011;63021;52.836;6.376;2023-02-21T10:38:57;41.95;;;26.25;;
55455;SDS011;63021;52.836;6.376;2023-02-21T10:41:30;47.42;;;27.40;;
55455;SDS011;63021;52.836;6.376;2023-02-21T10:44:03;40.08;;;26.90;;
55455;SDS011;63021;52.836;6.376;2023-02-21T10:46:39;52.22;;;26.92;;
55455;SDS011;63021;52.836;6.376;2023-02-21T10:49:30;41.03;;;25.92;;
55455;SDS011;63021;52.836;6.376;2023-02-21T10:54:32;40.97;;;26.60;;
55455;SDS011;63021;52.836;6.376;2023-02-21T10:56:57;45.42;;;26.20;;
55455;SDS011;63021;52.836;6.376;2023-02-21T10:59:26;47.90;;;25.85;;
55455;SDS011;63021;52.836;6.376;2023-02-21T11:01:54;41.60;;;26.42;;
55455;SDS011;63021;52.836;6.376;2023-02-21T11:09:39;46.83;;;27.15;;
55455;SDS011;63021;52.836;6.376;2023-02-21T11:14:41;40.20;;;25.70;;
55455;SDS011;63021;52.836;6.376;2023-02-21T11:17:28;41.40;;;25.77;;
55455;SDS011;63021;52.836;6.376;2023-02-21T11:20:02;47.17;;;27.50;;
55455;SDS011;63021;52.836;6.376;2023-02-21T11:22:41;46.33;;;27.42;;
55455;SDS011;63021;52.836;6.376;2023-02-21T11:25:30;42.45;;;26.70;;
55455;SDS011;63021;52.836;6.376;2023-02-21T11:28:03;45.13;;;26.45;;
55455;SDS011;63021;52.836;6.376;2023-02-21T11:33:54;38.78;;;24.13;;
55455;SDS011;63021;52.836;6.376;2023-02-21T11:36:26;45.03;;;27.08;;
55455;SDS011;63021;52.836;6.376;2023-02-21T11:44:28;43.42;;;25.95;;
55455;SDS011;63021;52.836;6.376;2023-02-21T11:52:18;45.30;;;26.75;;
55455;SDS011;63021;52.836;6.376;2023-02-21T11:54:48;42.72;;;24.88;;
55455;SDS011;63021;52.836;6.376;2023-02-21T12:13:33;39.35;;;26.33;;
55455;SDS011;63021;52.836;6.376;2023-02-21T12:16:07;39.03;;;24.48;;
55455;SDS011;63021;52.836;6.376;2023-02-21T12:18:51;40.88;;;25.98;;
55455;SDS011;63021;52.836;6.376;2023-02-21T12:30:05;39.33;;;25.77;;
55455;SDS011;63021;52.836;6.376;2023-02-21T12:38:08;40.97;;;26.80;;
55455;SDS011;63021;52.836;6.376;2023-02-21T12:41:20;40.42;;;24.65;;
55455;SDS011;63021;52.836;6.376;2023-02-21T12:44:11;41.58;;;26.23;;
55455;SDS011;63021;52.836;6.376;2023-02-21T12:46:50;46.05;;;26.88;;
55455;SDS011;63021;52.836;6.376;2023-02-21T12:52:32;47.03;;;26.95;;
55455;SDS011;63021;52.836;6.376;2023-02-21T12:55:21;36.10;;;25.02;;
55455;SDS011;63021;52.836;6.376;2023-02-21T12:57:49;42.63;;;25.35;;
55455;SDS011;63021;52.836;6.376;2023-02-21T13:00:24;44.47;;;27.13;;
55455;SDS011;63021;52.836;6.376;2023-02-21T13:08:06;39.17;;;24.83;;
55455;SDS011;63021;52.836;6.376;2023-02-21T13:10:38;43.63;;;26.58;;
55455;SDS011;63021;52.836;6.376;2023-02-21T13:13:15;44.95;;;26.80;;
55455;SDS011;63021;52.836;6.376;2023-02-21T13:15:49;38.92;;;26.05;;
55455;SDS011;63021;52.836;6.376;2023-02-21T13:18:31;43.08;;;24.90;;
55455;SDS011;63021;52.836;6.376;2023-02-21T13:21:12;41.75;;;26.45;;
55455;SDS011;63021;52.836;6.376;2023-02-21T13:23:50;43.60;;;26.77;;
55455;SDS011;63021;52.836;6.376;2023-02-21T13:26:39;39.20;;;25.88;;
55455;SDS011;63021;52.836;6.376;2023-02-21T13:29:18;42.30;;;25.20;;
55455;SDS011;63021;52.836;6.376;2023-02-21T13:31:46;44.30;;;26.30;;
55455;SDS011;63021;52.836;6.376;2023-02-21T13:34:19;41.20;;;26.67;;
55455;SDS011;63021;52.836;6.376;2023-02-21T13:36:50;39.83;;;25.48;;
55455;SDS011;63021;52.836;6.376;2023-02-21T13:39:20;43.03;;;26.80;;
55455;SDS011;63021;52.836;6.376;2023-02-21T13:44:35;42.22;;;25.30;;
55455;SDS011;63021;52.836;6.376;2023-02-21T13:47:20;45.05;;;28.50;;
55455;SDS011;63021;52.836;6.376;2023-02-21T13:49:57;42.80;;;25.13;;
55455;SDS011;63021;52.836;6.376;2023-02-21T13:52:52;44.38;;;24.42;;
55455;SDS011;63021;52.836;6.376;2023-02-21T13:55:28;42.38;;;26.13;;
55455;SDS011;63021;52.836;6.376;2023-02-21T14:03:32;44.15;;;25.65;;
55455;SDS011;63021;52.836;6.376;2023-02-21T14:08:27;36.38;;;25.23;;
55455;SDS011;63021;52.836;6.376;2023-02-21T14:11:18;43.60;;;26.55;;
55455;SDS011;63021;52.836;6.376;2023-02-21T14:13:51;41.70;;;25.33;;
55455;SDS011;63021;52.836;6.376;2023-02-21T14:16:28;43.88;;;25.15;;
55455;SDS011;63021;52.836;6.376;2023-02-21T14:21:38;44.78;;;27.38;;
55455;SDS011;63021;52.836;6.376;2023-02-21T14:26:40;43.03;;;27.40;;
55455;SDS011;63021;52.836;6.376;2023-02-21T14:38:11;44.42;;;26.08;;
55455;SDS011;63021;52.836;6.376;2023-02-21T14:56:02;41.15;;;25.30;;
55455;SDS011;63021;52.836;6.376;2023-02-21T15:02:06;42.38;;;26.80;;
55455;SDS011;63021;52.836;6.376;2023-02-21T15:10:20;45.17;;;28.35;;
55455;SDS011;63021;52.836;6.376;2023-02-21T15:13:18;41.65;;;26.75;;
55455;SDS011;63021;52.836;6.376;2023-02-21T15:15:54;44.00;;;28.23;;
55455;SDS011;63021;52.836;6.376;2023-02-21T15:18:26;47.20;;;27.95;;
55455;SDS011;63021;52.836;6.376;2023-02-21T15:23:43;50.30;;;27.10;;
55455;SDS011;63021;52.836;6.376;2023-02-21T15:28:46;45.35;;;26.33;;
55455;SDS011;63021;52.836;6.376;2023-02-21T15:31:33;44.88;;;26.98;;
55455;SDS011;63021;52.836;6.376;2023-02-21T15:34:04;43.13;;;27.45;;
55455;SDS011;63021;52.836;6.376;2023-02-21T15:36:32;45.47;;;27.05;;
55455;SDS011;63021;52.836;6.376;2023-02-21T15:39:02;43.05;;;26.45;;
55455;SDS011;63021;52.836;6.376;2023-02-21T15:41:47;40.55;;;26.00;;
55455;SDS011;63021;52.836;6.376;2023-02-21T15:44:48;45.47;;;25.77;;
55455;SDS011;63021;52.836;6.376;2023-02-21T15:47:13;44.20;;;25.00;;
55455;SDS011;63021;52.836;6.376;2023-02-21T15:49:43;42.33;;;26.52;;
55455;SDS011;63021;52.836;6.376;2023-02-21T15:52:30;37.72;;;24.92;;
55455;SDS011;63021;52.836;6.376;2023-02-21T15:57:38;37.42;;;24.42;;
55455;SDS011;63021;52.836;6.376;2023-02-21T16:00:18;37.22;;;24.50;;
55455;SDS011;63021;52.836;6.376;2023-02-21T16:05:43;35.72;;;24.75;;
55455;SDS011;63021;52.836;6.376;2023-02-21T16:09:34;39.80;;;24.38;;
55455;SDS011;63021;52.836;6.376;2023-02-21T16:19:41;42.15;;;24.58;;
55455;SDS011;63021;52.836;6.376;2023-02-21T16:27:38;43.20;;;25.83;;
55455;SDS011;63021;52.836;6.376;2023-02-21T16:30:05;46.05;;;27.15;;
55455;SDS011;63021;52.836;6.376;2023-02-21T16:32:35;47.40;;;26.27;;
55455;SDS011;63021;52.836;6.376;2023-02-21T16:35:03;54.80;;;28.63;;
55455;SDS011;63021;52.836;6.376;2023-02-21T16:37:28;41.70;;;26.05;;
55455;SDS011;63021;52.836;6.376;2023-02-21T16:39:54;47.92;;;26.55;;
55455;SDS011;63021;52.836;6.376;2023-02-21T16:42:19;50.58;;;28.55;;
55455;SDS011;63021;52.836;6.376;2023-02-21T16:44:44;48.15;;;27.85;;
55455;SDS011;63021;52.836;6.376;2023-02-21T16:47:14;46.78;;;27.08;;
55455;SDS011;63021;52.836;6.376;2023-02-21T16:49:40;55.47;;;28.55;;
55455;SDS011;63021;52.836;6.376;2023-02-21T16:52:13;43.83;;;27.33;;
55455;SDS011;63021;52.836;6.376;2023-02-21T16:54:40;49.97;;;27.70;;
55455;SDS011;63021;52.836;6.376;2023-02-21T16:57:07;45.05;;;28.80;;
55455;SDS011;63021;52.836;6.376;2023-02-21T16:59:34;41.95;;;26.70;;
55455;SDS011;63021;52.836;6.376;2023-02-21T17:02:00;50.42;;;27.00;;
55455;SDS011;63021;52.836;6.376;2023-02-21T17:04:26;50.67;;;29.60;;
55455;SDS011;63021;52.836;6.376;2023-02-21T17:06:59;44.85;;;25.40;;
55455;SDS011;63021;52.836;6.376;2023-02-21T17:09:28;45.72;;;26.48;;
55455;SDS011;63021;52.836;6.376;2023-02-21T17:11:57;43.45;;;27.20;;
55455;SDS011;63021;52.836;6.376;2023-02-21T17:14:24;42.38;;;25.65;;
55455;SDS011;63021;52.836;6.376;2023-02-21T17:16:49;41.38;;;24.80;;
55455;SDS011;63021;52.836;6.376;2023-02-21T17:19:16;39.95;;;25.15;;
55455;SDS011;63021;52.836;6.376;2023-02-21T17:21:45;43.17;;;25.27;;
55455;SDS011;63021;52.836;6.376;2023-02-21T17:24:11;40.85;;;23.75;;
55455;SDS011;63021;52.836;6.376;2023-02-21T17:26:38;36.03;;;23.42;;
55455;SDS011;63021;52.836;6.376;2023-02-21T17:29:04;35.17;;;22.88;;
55455;SDS011;63021;52.836;6.376;2023-02-21T17:31:30;40.42;;;23.05;;
55455;SDS011;63021;52.836;6.376;2023-02-21T17:33:55;38.13;;;24.00;;
55455;SDS011;63021;52.836;6.376;2023-02-21T17:36:22;42.83;;;29.08;;
55455;SDS011;63021;52.836;6.376;2023-02-21T17:38:50;43.13;;;25.95;;
55455;SDS011;63021;52.836;6.376;2023-02-21T17:41:17;41.30;;;25.40;;
55455;SDS011;63021;52.836;6.376;2023-02-21T17:43:43;38.45;;;24.13;;
55455;SDS011;63021;52.836;6.376;2023-02-21T17:46:10;38.58;;;25.02;;
55455;SDS011;63021;52.836;6.376;2023-02-21T17:48:39;41.60;;;26.77;;
55455;SDS011;63021;52.836;6.376;2023-02-21T17:51:06;49.95;;;28.80;;
55455;SDS011;63021;52.836;6.376;2023-02-21T17:53:32;54.22;;;33.10;;
55455;SDS011;63021;52.836;6.376;2023-02-21T17:55:57;47.78;;;32.40;;
55455;SDS011;63021;52.836;6.376;2023-02-21T17:58:27;42.85;;;27.73;;
55455;SDS011;63021;52.836;6.376;2023-02-21T18:00:57;38.38;;;23.30;;
55455;SDS011;63021;52.836;6.376;2023-02-21T18:03:23;41.90;;;26.40;;